Time;durP1;ratioP1;P1;durP2;ratioP2;P2;SDS_P1;SDS_P2;PMS_P1;PMS_P2;Temp;Humidity;BMP_temperature;BMP_pressure;BME280_temperature;BME280_humidity;BME280_pressure;Samples;Min_cycle;Max_cycle;Signal;HPM_P1;HPM_P2
2023/01/22 00:02:03;;;;;;;46.45;20.38;;;-0.70;99.90;;;;;;5048283;28;20135;-47
2023/01/22 00:04:29;;;;;;;48.65;19.55;;;-0.80;99.90;;;;;;5047539;28;20051;-47
2023/01/22 00:06:55;;;;;;;46.03;20.00;;;-0.90;99.90;;;;;;5047907;28;20044;-46
2023/01/22 00:09:21;;;;;;;43.72;19.33;;;-0.80;99.90;;;;;;5047984;28;20463;-47
2023/01/22 00:11:48;;;;;;;41.55;19.10;;;-0.90;99.90;;;;;;5047485;28;20539;-47
2023/01/22 00:14:14;;;;;;;45.83;18.77;;;-1.00;99.90;;;;;;5047866;28;20049;-47
2023/01/22 00:16:40;;;;;;;47.72;21.02;;;-0.80;99.90;;;;;;5047407;28;20060;-50
2023/01/22 00:19:07;;;;;;;40.90;19.98;;;-1.10;99.90;;;;;;5047985;28;20045;-49
2023/01/22 00:21:33;;;;;;;43.17;22.23;;;-1.20;99.90;;;;;;5047344;28;20033;-48
2023/01/22 00:23:59;;;;;;;47.10;20.10;;;-1.00;99.90;;;;;;5047361;28;20060;-49
2023/01/22 00:26:24;;;;;;;49.00;21.83;;;-0.90;99.90;;;;;;5047589;28;20041;-47
2023/01/22 00:28:50;;;;;;;47.65;21.45;;;-1.00;99.90;;;;;;5045213;28;20601;-47
2023/01/22 00:31:16;;;;;;;44.33;19.67;;;-1.00;99.90;;;;;;5046414;28;20714;-46
2023/01/22 00:33:43;;;;;;;45.92;21.23;;;-1.00;99.90;;;;;;5046363;28;20033;-50
2023/01/22 00:36:13;;;;;;;48.85;20.38;;;-1.20;99.90;;;;;;5046502;28;20041;-46
2023/01/22 00:38:39;;;;;;;50.35;23.23;;;-1.20;99.90;;;;;;5047105;28;20140;-46
2023/01/22 00:41:06;;;;;;;45.08;20.42;;;-1.20;99.90;;;;;;5047204;28;20695;-48
2023/01/22 00:43:34;;;;;;;51.35;22.55;;;-1.50;99.90;;;;;;5046804;28;20048;-49
2023/01/22 00:46:00;;;;;;;47.70;19.30;;;-1.20;99.90;;;;;;5046766;28;20050;-46
2023/01/22 00:48:26;;;;;;;46.55;20.52;;;-1.50;99.90;;;;;;5046091;28;20789;-47
2023/01/22 00:50:52;;;;;;;48.70;21.38;;;-1.60;99.90;;;;;;5046184;28;20474;-48
2023/01/22 00:53:18;;;;;;;47.53;22.00;;;-1.60;99.90;;;;;;5046682;28;20380;-46
2023/01/22 00:55:55;;;;;;;45.90;20.08;;;-1.60;99.90;;;;;;5028244;28;20502;-47
2023/01/22 00:58:21;;;;;;;42.95;21.33;;;-1.70;99.90;;;;;;5045857;28;20041;-47
2023/01/22 01:00:47;;;;;;;48.22;20.42;;;-1.70;99.90;;;;;;5045806;28;20045;-46
2023/01/22 01:03:25;;;;;;;44.92;19.63;;;-1.70;99.90;;;;;;5045741;28;20422;-48
2023/01/22 01:05:57;;;;;;;48.95;19.90;;;-1.70;99.90;;;;;;5045709;28;20110;-46
2023/01/22 01:08:24;;;;;;;45.85;20.08;;;-1.90;99.90;;;;;;5046311;28;20083;-47
2023/01/22 01:10:58;;;;;;;44.97;19.05;;;-1.80;99.90;;;;;;5045549;28;20099;-46
2023/01/22 01:13:24;;;;;;;36.20;18.17;;;-1.90;99.90;;;;;;5045177;28;20706;-47
2023/01/22 01:16:01;;;;;;;44.50;19.13;;;-1.90;99.90;;;;;;5045345;28;20501;-46
2023/01/22 01:18:27;;;;;;;42.67;18.95;;;-1.80;99.90;;;;;;5046032;28;20036;-47
2023/01/22 01:20:54;;;;;;;46.65;19.65;;;-1.80;99.90;;;;;;5045417;28;20051;-46
2023/01/22 01:23:21;;;;;;;39.95;19.55;;;-1.80;99.90;;;;;;5045842;28;20037;-46
2023/01/22 01:25:47;;;;;;;35.25;18.00;;;-1.80;99.90;;;;;;5045443;28;20765;-49
2023/01/22 01:28:12;;;;;;;39.53;17.95;;;-1.80;99.90;;;;;;5007988;28;1090676;-47
2023/01/22 01:30:38;;;;;;;35.25;17.70;;;-1.80;99.90;;;;;;5046124;28;20118;-47
2023/01/22 01:33:04;;;;;;;40.08;17.25;;;-1.80;99.90;;;;;;5046455;28;20063;-47
2023/01/22 01:35:29;;;;;;;39.97;18.45;;;-1.80;99.90;;;;;;5045818;28;20088;-50
2023/01/22 01:37:55;;;;;;;43.38;19.73;;;-1.80;99.90;;;;;;5046172;28;20033;-47
2023/01/22 01:40:21;;;;;;;47.40;19.70;;;-1.80;99.90;;;;;;5045872;28;20136;-49
2023/01/22 01:42:46;;;;;;;40.28;19.27;;;-1.70;99.90;;;;;;5046413;28;20052;-48
2023/01/22 01:45:32;;;;;;;42.60;19.10;;;-1.60;99.90;;;;;;5046340;28;20051;-46
2023/01/22 01:48:11;;;;;;;39.60;17.15;;;-1.60;99.90;;;;;;5045506;28;20048;-48
2023/01/22 01:50:40;;;;;;;43.50;17.80;;;-1.40;99.90;;;;;;5046104;28;20052;-48
2023/01/22 01:53:07;;;;;;;32.03;15.68;;;-1.10;99.90;;;;;;5046641;28;20048;-47
2023/01/22 01:55:34;;;;;;;35.33;16.60;;;-1.00;99.90;;;;;;5046292;28;20828;-48
2023/01/22 01:58:07;;;;;;;34.20;17.77;;;-0.80;99.90;;;;;;5045967;28;20103;-48
2023/01/22 02:00:35;;;;;;;39.83;17.67;;;-0.80;99.90;;;;;;5046498;28;20045;-47
2023/01/22 02:03:00;;;;;;;35.13;17.00;;;-0.70;99.90;;;;;;5046233;28;20130;-47
2023/01/22 02:05:29;;;;;;;31.05;14.90;;;-0.60;99.90;;;;;;5046667;28;20102;-48
2023/01/22 02:07:55;;;;;;;35.50;16.13;;;-0.50;99.90;;;;;;5045859;28;20487;-47
2023/01/22 02:10:21;;;;;;;32.58;14.65;;;-0.40;99.90;;;;;;5045986;28;20057;-48
2023/01/22 02:12:47;;;;;;;36.17;16.15;;;-0.40;99.90;;;;;;5046331;28;20041;-48
2023/01/22 02:15:13;;;;;;;31.67;15.30;;;0.00;99.90;;;;;;5028313;28;20040;-51
2023/01/22 02:17:39;;;;;;;29.25;14.38;;;-0.30;99.90;;;;;;5044396;28;20800;-48
2023/01/22 02:20:05;;;;;;;28.48;14.82;;;-0.30;99.90;;;;;;5045801;28;20048;-48
2023/01/22 02:22:34;;;;;;;29.73;14.35;;;-0.40;99.90;;;;;;5045868;28;20219;-51
2023/01/22 02:25:00;;;;;;;35.35;15.25;;;-0.30;99.90;;;;;;5045826;28;20124;-49
2023/01/22 02:27:26;;;;;;;30.45;15.63;;;-0.30;99.90;;;;;;5045623;28;20870;-50
2023/01/22 02:29:51;;;;;;;30.23;15.85;;;-0.30;99.90;;;;;;5046082;28;20091;-48
2023/01/22 02:32:17;;;;;;;32.70;14.93;;;-0.40;99.90;;;;;;5045903;28;20091;-48
2023/01/22 02:34:43;;;;;;;27.10;13.82;;;-0.30;99.90;;;;;;5046275;28;20049;-49
2023/01/22 02:37:09;;;;;;;28.20;15.50;;;-0.30;99.90;;;;;;5045663;28;20033;-48
2023/01/22 02:39:35;;;;;;;30.10;16.65;;;-0.30;99.90;;;;;;5045892;28;20470;-47
2023/01/22 02:42:02;;;;;;;35.22;15.73;;;-0.30;99.90;;;;;;5045077;28;20060;-47
2023/01/22 02:44:28;;;;;;;22.75;13.45;;;-0.30;99.90;;;;;;5045597;28;20060;-48
2023/01/22 02:46:53;;;;;;;28.80;14.48;;;-0.30;99.90;;;;;;5045291;28;20048;-48
2023/01/22 02:49:19;;;;;;;27.50;14.23;;;-0.20;99.90;;;;;;5046107;28;20041;-47
2023/01/22 02:51:44;;;;;;;23.13;12.32;;;-0.20;99.90;;;;;;5047001;28;20041;-47
2023/01/22 02:54:10;;;;;;;26.00;12.65;;;-0.20;99.90;;;;;;5049129;28;20045;-47
2023/01/22 02:56:36;;;;;;;19.40;10.63;;;0.10;99.90;;;;;;5049507;28;20103;-47
2023/01/22 02:59:03;;;;;;;20.77;10.68;;;-0.20;99.90;;;;;;5048703;28;20033;-48
2023/01/22 03:01:29;;;;;;;16.42;10.05;;;-0.20;99.90;;;;;;5049320;28;20380;-48
2023/01/22 03:03:57;;;;;;;19.05;10.50;;;-0.20;99.90;;;;;;5049417;28;20032;-46
2023/01/22 03:06:25;;;;;;;18.83;10.40;;;-0.20;99.90;;;;;;5049214;28;20658;-47
2023/01/22 03:08:59;;;;;;;18.75;10.35;;;-0.20;99.90;;;;;;5048839;28;20045;-49
2023/01/22 03:11:27;;;;;;;18.65;11.00;;;-0.20;99.90;;;;;;5049501;28;20426;-47
2023/01/22 03:22:08;;;;;;;19.70;11.30;;;-0.20;99.90;;;;;;5048261;28;20056;-49
2023/01/22 03:24:34;;;;;;;19.88;10.88;;;-0.10;99.90;;;;;;5049182;28;20536;-47
2023/01/22 03:27:00;;;;;;;16.55;9.98;;;-0.10;99.90;;;;;;5049051;28;20071;-48
2023/01/22 03:29:25;;;;;;;18.65;10.55;;;0.30;99.90;;;;;;5048579;28;20510;-47
2023/01/22 03:31:51;;;;;;;19.55;10.73;;;0.00;99.90;;;;;;5049020;28;20099;-47
2023/01/22 03:34:19;;;;;;;18.55;9.77;;;-0.10;99.90;;;;;;5048089;28;20084;-48
2023/01/22 03:36:45;;;;;;;18.05;9.30;;;-0.10;99.90;;;;;;5049054;28;20103;-48
2023/01/22 03:39:11;;;;;;;13.27;8.32;;;-0.10;99.90;;;;;;5048955;28;20378;-48
2023/01/22 03:41:37;;;;;;;14.18;7.90;;;-0.10;99.90;;;;;;5049097;28;20116;-47
2023/01/22 03:44:03;;;;;;;17.40;9.50;;;-0.10;99.90;;;;;;5030621;28;20037;-48
2023/01/22 03:46:30;;;;;;;16.48;8.90;;;-0.20;99.90;;;;;;5049073;28;20104;-48
2023/01/22 03:48:55;;;;;;;12.73;8.10;;;-0.10;99.90;;;;;;5048532;28;20068;-47
2023/01/22 03:51:22;;;;;;;13.30;8.07;;;-0.10;99.90;;;;;;5048157;28;20079;-46
2023/01/22 03:53:48;;;;;;;14.40;7.50;;;0.00;99.90;;;;;;5047951;28;20033;-48
2023/01/22 03:56:16;;;;;;;13.90;7.75;;;-0.10;99.90;;;;;;5047899;28;20057;-48
2023/01/22 03:58:42;;;;;;;11.98;7.50;;;0.00;99.90;;;;;;5048032;28;20402;-48
2023/01/22 04:01:10;;;;;;;14.45;8.30;;;0.00;99.90;;;;;;5048040;28;20033;-48
2023/01/22 04:03:36;;;;;;;12.85;8.13;;;-0.10;99.90;;;;;;5048602;28;20037;-47
2023/01/22 04:06:04;;;;;;;14.15;8.05;;;0.00;99.90;;;;;;5049033;28;20106;-47
2023/01/22 04:08:32;;;;;;;12.40;6.88;;;-0.10;99.90;;;;;;5048546;28;20072;-51
2023/01/22 04:10:59;;;;;;;13.57;8.65;;;0.00;99.90;;;;;;5047746;28;20429;-47
2023/01/22 04:13:26;;;;;;;15.48;7.47;;;0.00;99.90;;;;;;5047889;28;20419;-47
2023/01/22 04:15:52;;;;;;;13.13;7.93;;;0.10;99.90;;;;;;5047810;28;20141;-48
2023/01/22 04:18:18;;;;;;;13.15;8.00;;;0.00;99.90;;;;;;5047827;28;20367;-47
2023/01/22 04:20:45;;;;;;;18.17;8.80;;;0.10;99.90;;;;;;5047845;28;20374;-47
2023/01/22 04:23:11;;;;;;;13.68;8.00;;;0.00;99.90;;;;;;5048097;28;20052;-48
2023/01/22 04:25:37;;;;;;;11.02;7.47;;;0.30;99.90;;;;;;5047887;28;20613;-50
2023/01/22 04:28:03;;;;;;;13.82;8.20;;;0.00;99.90;;;;;;5047549;28;20093;-47
2023/01/22 04:30:30;;;;;;;12.85;8.68;;;-0.10;99.90;;;;;;5047738;28;20075;-47
2023/01/22 04:32:55;;;;;;;11.60;7.70;;;0.00;99.90;;;;;;5047748;28;20688;-46
2023/01/22 04:35:21;;;;;;;15.55;8.75;;;0.20;99.90;;;;;;5029160;28;20091;-48
2023/01/22 04:37:47;;;;;;;13.27;8.80;;;0.10;99.90;;;;;;5047815;28;20049;-47
2023/01/22 04:40:13;;;;;;;12.50;8.30;;;0.00;99.90;;;;;;5046341;28;20032;-49
2023/01/22 04:42:39;;;;;;;12.90;8.43;;;-0.10;99.90;;;;;;5029524;28;20532;-47
2023/01/22 04:45:05;;;;;;;13.38;8.32;;;0.00;99.90;;;;;;5047584;28;20044;-47
2023/01/22 04:47:31;;;;;;;13.23;7.70;;;-0.10;99.90;;;;;;5047342;28;20343;-49
2023/01/22 04:49:56;;;;;;;11.77;7.57;;;0.10;99.90;;;;;;5047290;28;20057;-48
2023/01/22 04:52:22;;;;;;;12.95;8.05;;;0.10;99.90;;;;;;5047063;28;20097;-48
2023/01/22 04:54:48;;;;;;;13.52;8.95;;;0.10;99.90;;;;;;5046932;28;20175;-47
2023/01/22 04:57:14;;;;;;;11.65;8.15;;;0.10;99.90;;;;;;5047190;28;20077;-47
2023/01/22 04:59:39;;;;;;;15.25;8.70;;;0.40;99.90;;;;;;5029057;28;20091;-47
2023/01/22 05:02:05;;;;;;;10.52;7.40;;;0.10;99.90;;;;;;5047379;28;20037;-50
2023/01/22 05:04:31;;;;;;;15.05;7.78;;;0.00;99.90;;;;;;5047191;28;20091;-46
2023/01/22 05:06:56;;;;;;;14.15;8.45;;;0.10;99.90;;;;;;5047246;28;20086;-47
2023/01/22 05:09:23;;;;;;;10.45;7.30;;;0.00;99.90;;;;;;5046929;28;20131;-49
2023/01/22 05:11:49;;;;;;;13.82;7.18;;;0.20;99.90;;;;;;5047328;28;20080;-47
2023/01/22 05:14:14;;;;;;;14.57;7.68;;;0.00;99.90;;;;;;5045900;28;20111;-49
2023/01/22 05:16:40;;;;;;;12.48;7.68;;;0.00;99.90;;;;;;5047202;28;20481;-47
2023/01/22 05:19:06;;;;;;;10.82;6.88;;;0.10;99.90;;;;;;5047177;28;20040;-48
2023/01/22 05:21:31;;;;;;;10.95;7.57;;;0.00;99.90;;;;;;5046681;28;20052;-47
2023/01/22 05:23:57;;;;;;;12.00;7.75;;;0.00;99.90;;;;;;5028774;28;20051;-47
2023/01/22 05:26:23;;;;;;;10.75;7.00;;;0.00;99.90;;;;;;5046569;28;20137;-48
2023/01/22 05:28:48;;;;;;;11.00;7.47;;;0.00;99.90;;;;;;5046462;28;20141;-48
2023/01/22 05:31:14;;;;;;;11.88;7.68;;;0.10;99.90;;;;;;5047120;28;20052;-46
2023/01/22 05:33:40;;;;;;;12.50;7.57;;;0.10;99.90;;;;;;5047085;28;20435;-50
2023/01/22 05:36:06;;;;;;;10.05;6.03;;;0.10;99.90;;;;;;5046782;28;20495;-46
2023/01/22 05:38:32;;;;;;;9.68;6.40;;;-0.10;99.90;;;;;;5046410;28;20037;-46
2023/01/22 05:40:58;;;;;;;13.02;6.65;;;0.00;99.90;;;;;;5046806;28;20059;-48
2023/01/22 05:43:23;;;;;;;13.52;7.22;;;0.00;99.90;;;;;;5046585;28;20399;-46
2023/01/22 05:45:49;;;;;;;9.63;6.10;;;0.00;99.90;;;;;;5046577;28;20041;-47
2023/01/22 05:48:14;;;;;;;9.65;6.85;;;0.00;99.90;;;;;;5047305;28;20037;-47
2023/01/22 05:50:41;;;;;;;9.30;6.40;;;0.00;99.90;;;;;;5046173;28;20044;-47
2023/01/22 05:53:06;;;;;;;8.50;5.72;;;0.00;99.90;;;;;;5046152;28;20048;-47
2023/01/22 05:55:33;;;;;;;9.13;6.22;;;0.00;99.90;;;;;;5046097;28;20603;-48
2023/01/22 05:57:59;;;;;;;9.15;6.18;;;0.00;99.90;;;;;;5046576;28;20045;-48
2023/01/22 06:00:25;;;;;;;9.82;6.50;;;0.00;99.90;;;;;;5045784;28;20029;-47
2023/01/22 06:03:01;;;;;;;9.05;6.32;;;0.00;99.90;;;;;;5046077;28;20060;-46
2023/01/22 06:05:26;;;;;;;9.93;6.15;;;0.00;99.90;;;;;;5045901;28;20506;-47
2023/01/22 06:07:52;;;;;;;9.48;6.55;;;0.00;99.90;;;;;;5044787;28;20044;-49
2023/01/22 06:10:18;;;;;;;11.68;6.43;;;0.00;99.90;;;;;;5046102;28;20128;-47
2023/01/22 06:12:44;;;;;;;8.93;6.63;;;0.10;99.90;;;;;;5046208;28;20052;-48
2023/01/22 06:15:10;;;;;;;10.40;7.05;;;0.00;99.90;;;;;;5046138;28;20072;-47
2023/01/22 06:17:36;;;;;;;12.68;6.68;;;-0.10;99.90;;;;;;5045574;28;20476;-46
2023/01/22 06:20:05;;;;;;;9.98;6.28;;;-0.10;99.90;;;;;;5045973;28;20115;-50
2023/01/22 06:22:31;;;;;;;11.02;6.70;;;-0.20;99.90;;;;;;5045538;28;20060;-46
2023/01/22 06:24:57;;;;;;;12.93;7.80;;;0.00;99.90;;;;;;5045853;28;20045;-49
2023/01/22 06:27:22;;;;;;;10.75;6.45;;;0.10;99.90;;;;;;5045007;28;20387;-47
2023/01/22 06:29:48;;;;;;;11.07;7.13;;;0.00;99.90;;;;;;5045726;28;20044;-46
2023/01/22 06:32:14;;;;;;;9.45;6.47;;;0.00;99.90;;;;;;5046282;28;20045;-47
2023/01/22 06:34:39;;;;;;;13.60;6.78;;;0.00;99.90;;;;;;5046145;28;20678;-47
2023/01/22 06:37:05;;;;;;;10.55;6.15;;;0.00;99.90;;;;;;5046322;28;20044;-48
2023/01/22 06:39:31;;;;;;;9.88;6.75;;;0.10;99.90;;;;;;5045368;28;20391;-50
2023/01/22 06:41:56;;;;;;;10.73;6.70;;;0.10;99.90;;;;;;5045864;28;20387;-47
2023/01/22 06:44:22;;;;;;;11.60;7.38;;;-0.10;99.90;;;;;;5045887;28;20057;-46
2023/01/22 06:46:48;;;;;;;11.95;7.95;;;0.00;99.90;;;;;;5045584;28;20076;-48
2023/01/22 06:49:14;;;;;;;11.48;7.50;;;0.00;99.90;;;;;;5045827;28;20064;-47
2023/01/22 06:51:40;;;;;;;11.88;7.32;;;0.00;99.90;;;;;;5044880;28;20041;-47
2023/01/22 06:54:06;;;;;;;11.77;7.85;;;0.00;99.90;;;;;;5045327;28;20566;-46
2023/01/22 06:56:32;;;;;;;12.88;7.60;;;-0.10;99.90;;;;;;5045571;28;20041;-47
2023/01/22 06:58:57;;;;;;;10.77;7.55;;;0.00;99.90;;;;;;5045374;28;20049;-47
2023/01/22 07:01:24;;;;;;;10.57;8.50;;;0.00;99.90;;;;;;5045095;28;20075;-47
2023/01/22 07:03:50;;;;;;;11.25;7.90;;;-0.10;99.90;;;;;;5027573;28;20056;-48
2023/01/22 07:06:17;;;;;;;12.52;7.57;;;-0.10;99.90;;;;;;5045166;28;20123;-48
2023/01/22 07:08:43;;;;;;;10.48;7.72;;;0.00;99.90;;;;;;5045125;28;20124;-46
2023/01/22 07:11:09;;;;;;;10.90;7.72;;;0.00;99.90;;;;;;5045007;28;20170;-46
2023/01/22 07:13:34;;;;;;;14.38;7.47;;;-0.10;99.90;;;;;;5045096;28;20045;-47
2023/01/22 07:16:04;;;;;;;10.48;7.80;;;0.00;99.90;;;;;;5045067;28;20128;-47
2023/01/22 07:18:30;;;;;;;10.68;8.02;;;-0.10;99.90;;;;;;5045577;28;20056;-47
2023/01/22 07:21:01;;;;;;;11.02;7.95;;;0.00;99.90;;;;;;5045726;28;20037;-47
2023/01/22 07:23:28;;;;;;;12.23;8.00;;;-0.10;99.90;;;;;;5045819;28;20073;-47
2023/01/22 07:25:53;;;;;;;10.80;7.35;;;0.00;99.90;;;;;;5045479;28;20576;-46
2023/01/22 07:28:19;;;;;;;10.32;7.45;;;0.00;99.90;;;;;;5045059;28;20250;-46
2023/01/22 07:30:45;;;;;;;10.85;6.97;;;0.00;99.90;;;;;;5045125;28;20052;-48
2023/01/22 07:33:12;;;;;;;11.18;7.32;;;0.00;99.90;;;;;;5044824;28;20048;-47
2023/01/22 07:35:38;;;;;;;10.43;7.18;;;0.00;99.90;;;;;;5044515;28;20055;-47
2023/01/22 07:38:04;;;;;;;10.68;7.63;;;0.00;99.90;;;;;;5046702;28;20087;-49
2023/01/22 07:40:30;;;;;;;9.98;7.22;;;0.00;99.90;;;;;;5048803;28;20112;-47
2023/01/22 07:42:56;;;;;;;12.02;7.53;;;0.00;99.90;;;;;;5048348;28;20148;-49
2023/01/22 07:45:23;;;;;;;12.18;9.18;;;0.00;99.90;;;;;;5048792;28;20049;-47
2023/01/22 07:47:53;;;;;;;13.20;6.97;;;0.00;99.90;;;;;;5049090;28;20048;-48
2023/01/22 07:50:25;;;;;;;10.80;6.88;;;-0.10;99.90;;;;;;5049110;28;20096;-50
2023/01/22 07:52:51;;;;;;;13.57;7.55;;;0.00;99.90;;;;;;5048534;28;20040;-47
2023/01/22 07:55:17;;;;;;;11.15;7.57;;;1.20;99.90;;;;;;5048386;28;20052;-47
2023/01/22 07:57:42;;;;;;;12.30;7.28;;;0.00;99.90;;;;;;5048499;28;20103;-46
2023/01/22 08:00:09;;;;;;;11.50;7.70;;;0.00;99.90;;;;;;5048580;28;20041;-47
2023/01/22 08:02:36;;;;;;;12.50;7.20;;;-0.10;99.90;;;;;;5048388;28;20490;-48
2023/01/22 08:05:02;;;;;;;12.60;7.18;;;-0.10;99.90;;;;;;5048657;28;20064;-47
2023/01/22 08:07:29;;;;;;;11.75;7.75;;;0.20;99.90;;;;;;5047893;28;20040;-46
2023/01/22 08:09:55;;;;;;;10.93;7.47;;;0.30;99.90;;;;;;5048363;28;20045;-47
2023/01/22 08:12:21;;;;;;;11.85;7.75;;;0.00;99.90;;;;;;5048696;28;20036;-49
2023/01/22 08:14:47;;;;;;;10.85;7.00;;;0.00;99.90;;;;;;5047600;28;20037;-48
2023/01/22 08:17:12;;;;;;;10.55;7.32;;;0.00;99.90;;;;;;5048203;28;20048;-48
2023/01/22 08:19:38;;;;;;;10.43;7.28;;;0.10;99.90;;;;;;5048205;28;20033;-48
2023/01/22 08:22:04;;;;;;;11.20;8.23;;;0.10;99.90;;;;;;5047845;28;20040;-47
2023/01/22 08:24:30;;;;;;;11.07;7.88;;;0.10;99.90;;;;;;5047972;28;20219;-47
2023/01/22 08:26:56;;;;;;;13.63;7.43;;;0.10;99.90;;;;;;5047899;28;20091;-47
2023/01/22 08:29:22;;;;;;;10.60;7.40;;;0.00;99.90;;;;;;5048449;28;20160;-47
2023/01/22 08:31:49;;;;;;;11.30;7.53;;;0.40;99.90;;;;;;5048539;28;20045;-47
2023/01/22 08:34:15;;;;;;;10.63;7.93;;;0.10;99.90;;;;;;5047635;28;20037;-47
2023/01/22 08:36:41;;;;;;;9.48;7.55;;;0.10;99.90;;;;;;5048029;28;20434;-48
2023/01/22 08:39:09;;;;;;;10.18;8.45;;;0.10;99.90;;;;;;5048166;28;20091;-48
2023/01/22 08:41:35;;;;;;;11.18;8.27;;;0.10;99.90;;;;;;5048094;28;20193;-49
2023/01/22 08:44:00;;;;;;;12.60;8.88;;;0.20;99.90;;;;;;5047558;28;20040;-47
2023/01/22 08:46:26;;;;;;;10.70;7.97;;;0.30;99.90;;;;;;5047298;28;20052;-48
2023/01/22 08:48:52;;;;;;;10.65;8.50;;;0.30;99.90;;;;;;5046400;28;20128;-48
2023/01/22 08:51:17;;;;;;;13.55;10.00;;;0.20;99.90;;;;;;5045173;28;20431;-46
2023/01/22 08:53:43;;;;;;;13.25;9.23;;;0.30;99.90;;;;;;5047011;28;20040;-47
2023/01/22 08:56:10;;;;;;;15.18;9.23;;;0.30;99.90;;;;;;5046389;28;20044;-48
2023/01/22 08:58:35;;;;;;;11.10;8.93;;;0.50;99.90;;;;;;5047432;28;20583;-47
2023/01/22 09:01:01;;;;;;;12.07;9.05;;;0.40;99.90;;;;;;5047185;28;20041;-46
2023/01/22 09:03:27;;;;;;;12.00;9.43;;;0.40;99.90;;;;;;5047443;28;20483;-47
2023/01/22 09:05:53;;;;;;;12.20;8.68;;;0.50;99.90;;;;;;5046991;28;20055;-48
2023/01/22 09:08:20;;;;;;;12.77;9.20;;;0.50;99.90;;;;;;5047560;28;20048;-49
2023/01/22 09:10:46;;;;;;;10.32;8.63;;;0.80;99.90;;;;;;5045940;28;20049;-47
2023/01/22 09:13:11;;;;;;;10.45;8.30;;;0.70;99.90;;;;;;5047083;28;20116;-47
2023/01/22 09:15:39;;;;;;;12.20;9.40;;;0.90;99.90;;;;;;5047386;28;20056;-46
2023/01/22 09:18:05;;;;;;;14.95;9.35;;;1.00;99.90;;;;;;5046794;28;20111;-47
2023/01/22 09:20:30;;;;;;;11.60;9.30;;;1.20;99.90;;;;;;5047347;28;20048;-47
2023/01/22 09:22:56;;;;;;;11.98;10.43;;;1.00;99.90;;;;;;5046865;28;20045;-47
2023/01/22 09:25:22;;;;;;;10.52;9.05;;;0.90;99.90;;;;;;5047295;28;20483;-46
2023/01/22 09:27:47;;;;;;;9.55;8.48;;;1.20;99.90;;;;;;5046721;28;20065;-47
2023/01/22 09:30:13;;;;;;;11.25;8.77;;;1.10;99.90;;;;;;5046405;28;20057;-50
2023/01/22 09:32:39;;;;;;;11.52;8.57;;;1.20;99.90;;;;;;5047029;28;20041;-47
2023/01/22 09:35:07;;;;;;;11.80;8.82;;;1.10;99.90;;;;;;5046710;28;20053;-47
2023/01/22 09:37:33;;;;;;;11.32;8.98;;;1.20;99.90;;;;;;5045880;28;20041;-48
2023/01/22 09:39:59;;;;;;;12.68;8.57;;;1.10;99.90;;;;;;5046627;28;20062;-48
2023/01/22 09:42:39;;;;;;;11.45;8.75;;;1.10;99.90;;;;;;5046385;28;20072;-48
2023/01/22 09:45:15;;;;;;;10.98;8.25;;;1.00;99.90;;;;;;5045938;28;20106;-48
2023/01/22 09:47:46;;;;;;;10.32;8.82;;;1.00;99.90;;;;;;5020314;28;20167;-51
2023/01/22 09:50:26;;;;;;;11.82;8.48;;;1.00;99.90;;;;;;5045731;28;20479;-47
2023/01/22 09:52:55;;;;;;;13.38;8.27;;;1.10;99.90;;;;;;5046292;28;20056;-48
2023/01/22 09:55:23;;;;;;;11.30;8.65;;;1.50;99.90;;;;;;5024684;28;20509;-51
2023/01/22 09:57:54;;;;;;;11.43;8.25;;;1.10;99.90;;;;;;5043018;28;20051;-48
2023/01/22 10:00:37;;;;;;;10.02;8.18;;;1.20;99.90;;;;;;5042559;28;20049;-50
2023/01/22 10:03:31;;;;;;;11.65;9.50;;;1.30;99.90;;;;;;5043293;28;20124;-51
2023/01/22 10:06:03;;;;;;;10.15;9.10;;;1.40;99.90;;;;;;5033311;28;20060;-50
2023/01/22 10:08:36;;;;;;;12.50;7.80;;;1.60;99.90;;;;;;5043350;28;20049;-48
2023/01/22 10:11:03;;;;;;;8.93;7.72;;;1.80;99.90;;;;;;5042560;28;20041;-48
2023/01/22 10:13:35;;;;;;;8.90;7.65;;;1.80;99.90;;;;;;5042966;28;20064;-50
2023/01/22 10:16:01;;;;;;;9.77;7.55;;;2.00;99.90;;;;;;5041420;28;20625;-50
2023/01/22 10:18:42;;;;;;;8.63;7.05;;;2.40;99.90;;;;;;5042182;28;20459;-49
2023/01/22 10:21:26;;;;;;;8.48;7.22;;;2.50;99.90;;;;;;5042508;28;20398;-47
2023/01/22 10:23:54;;;;;;;8.85;7.95;;;2.40;99.90;;;;;;5038487;28;20033;-50
2023/01/22 10:26:41;;;;;;;9.55;7.13;;;2.40;99.90;;;;;;5041898;28;20045;-51
2023/01/22 10:29:13;;;;;;;8.18;7.30;;;2.70;99.90;;;;;;5041435;28;20163;-50
2023/01/22 10:31:46;;;;;;;12.98;7.28;;;2.50;99.90;;;;;;5042928;28;20094;-49
2023/01/22 10:34:41;;;;;;;11.10;7.90;;;2.40;99.90;;;;;;5042247;28;20130;-49
2023/01/22 10:37:16;;;;;;;14.57;9.35;;;2.30;99.90;;;;;;5021609;28;20052;-48
2023/01/22 10:39:44;;;;;;;9.93;7.65;;;2.30;99.90;;;;;;5043127;28;20643;-50
2023/01/22 10:42:24;;;;;;;9.65;6.70;;;3.00;99.90;;;;;;5042720;28;20120;-49
2023/01/22 10:45:08;;;;;;;8.27;7.22;;;2.30;99.90;;;;;;5043071;28;20044;-50
2023/01/22 10:47:33;;;;;;;9.85;7.80;;;2.20;99.90;;;;;;5018609;28;20521;-51
2023/01/22 10:50:18;;;;;;;9.93;8.70;;;2.20;99.90;;;;;;5042199;28;20041;-47
2023/01/22 10:52:50;;;;;;;8.98;7.72;;;2.10;99.90;;;;;;5024802;28;20053;-50
2023/01/22 10:55:23;;;;;;;10.00;8.90;;;2.10;99.90;;;;;;5042169;28;20130;-48
2023/01/22 10:58:02;;;;;;;10.05;7.55;;;2.00;99.90;;;;;;5012676;28;20262;-42
2023/01/22 11:00:34;;;;;;;8.55;7.50;;;0.60;99.90;;;;;;5037015;28;20638;-46
2023/01/22 11:03:00;;;;;;;9.50;7.47;;;2.00;99.90;;;;;;5033863;28;20056;-40
2023/01/22 11:05:33;;;;;;;8.40;7.40;;;2.10;99.90;;;;;;5019855;28;20059;-40
2023/01/22 11:08:03;;;;;;;11.85;7.60;;;2.00;99.90;;;;;;5038266;28;20497;-41
2023/01/22 11:10:35;;;;;;;9.75;8.43;;;2.00;99.90;;;;;;5039020;28;20047;-40
2023/01/22 11:13:14;;;;;;;13.73;8.95;;;2.30;99.90;;;;;;5022991;28;20048;-41
2023/01/22 11:16:11;;;;;;;10.25;7.50;;;2.10;99.90;;;;;;5043181;28;20043;-41
2023/01/22 11:18:58;;;;;;;12.65;7.88;;;2.10;99.90;;;;;;5043235;28;20118;-41
2023/01/22 11:21:38;;;;;;;11.13;8.38;;;2.10;99.90;;;;;;5042646;28;20050;-41
2023/01/22 11:24:27;;;;;;;15.30;8.93;;;2.00;99.90;;;;;;5024798;28;20442;-40
2023/01/22 11:27:20;;;;;;;9.15;8.18;;;2.00;99.90;;;;;;5042767;28;20037;-39
2023/01/22 11:29:55;;;;;;;8.27;7.47;;;2.00;99.90;;;;;;5042313;28;20057;-41
2023/01/22 11:32:35;;;;;;;9.10;7.65;;;2.00;99.90;;;;;;5041426;28;20124;-41
2023/01/22 11:35:26;;;;;;;10.02;7.50;;;2.00;99.90;;;;;;5043199;28;20096;-40
2023/01/22 11:38:21;;;;;;;8.63;7.72;;;1.90;99.90;;;;;;5042409;28;20067;-40
2023/01/22 11:41:02;;;;;;;9.30;8.02;;;2.00;99.90;;;;;;5025135;28;20677;-41
2023/01/22 11:43:54;;;;;;;9.55;7.28;;;1.90;99.90;;;;;;5043414;28;20041;-40
2023/01/22 11:46:32;;;;;;;11.32;8.57;;;1.90;99.90;;;;;;5023786;28;20080;-41
2023/01/22 11:49:13;;;;;;;9.98;8.05;;;1.90;99.90;;;;;;5041657;28;20041;-40
2023/01/22 11:51:57;;;;;;;10.02;8.32;;;2.10;99.90;;;;;;5043759;28;20044;-40
2023/01/22 11:54:31;;;;;;;9.70;7.75;;;1.90;99.90;;;;;;5043528;28;20041;-41
2023/01/22 11:57:19;;;;;;;11.40;8.80;;;1.80;99.90;;;;;;5023960;28;20055;-43
2023/01/22 11:59:56;;;;;;;9.73;7.90;;;1.80;99.90;;;;;;5043577;28;20041;-41
2023/01/22 12:02:48;;;;;;;12.02;8.63;;;1.80;99.90;;;;;;5043306;28;20045;-41
2023/01/22 12:05:31;;;;;;;10.70;7.53;;;1.70;99.90;;;;;;5043763;28;20044;-41
2023/01/22 12:08:31;;;;;;;10.80;7.95;;;1.70;99.90;;;;;;5043250;28;20041;-41
2023/01/22 12:11:10;;;;;;;10.02;6.90;;;1.70;99.90;;;;;;5043014;28;20049;-41
2023/01/22 12:13:58;;;;;;;9.63;7.85;;;1.70;99.90;;;;;;5043042;28;21124;-43
2023/01/22 12:16:37;;;;;;;11.63;8.35;;;1.60;99.90;;;;;;4992582;28;20056;-42
2023/01/22 12:19:44;;;;;;;9.35;7.68;;;1.80;99.90;;;;;;5042715;28;20051;-42
2023/01/22 12:22:29;;;;;;;9.93;6.85;;;1.60;99.90;;;;;;4953661;28;20094;-41
2023/01/22 12:25:13;;;;;;;12.68;7.80;;;0.50;99.90;;;;;;5040886;28;20244;-41
2023/01/22 12:28:07;;;;;;;8.70;7.07;;;1.60;99.90;;;;;;5041642;28;20489;-41
2023/01/22 12:30:48;;;;;;;10.02;7.43;;;1.60;99.90;;;;;;5042080;28;20044;-40
2023/01/22 12:33:19;;;;;;;10.57;7.38;;;1.60;99.90;;;;;;5024694;28;20048;-40
2023/01/22 12:35:48;;;;;;;9.98;7.03;;;1.60;99.90;;;;;;5042438;28;20056;-43
2023/01/22 12:38:40;;;;;;;9.27;7.18;;;1.60;99.90;;;;;;5042418;28;20048;-45
2023/01/22 12:41:25;;;;;;;9.63;6.90;;;1.50;99.90;;;;;;5023931;28;20518;-44
2023/01/22 12:43:58;;;;;;;10.93;6.60;;;1.70;99.90;;;;;;5042993;28;20049;-43
2023/01/22 12:46:32;;;;;;;11.13;9.00;;;1.80;99.90;;;;;;5023964;28;20047;-44
2023/01/22 12:49:06;;;;;;;8.65;6.80;;;1.60;99.90;;;;;;5042734;28;20116;-45
2023/01/22 12:51:43;;;;;;;10.43;6.85;;;1.60;99.90;;;;;;5042455;28;20364;-44
2023/01/22 12:54:20;;;;;;;9.38;7.00;;;1.60;99.90;;;;;;5042197;28;20045;-46
2023/01/22 12:56:51;;;;;;;10.02;7.10;;;1.60;99.90;;;;;;5022994;28;20048;-43
2023/01/22 12:59:53;;;;;;;12.73;6.97;;;1.70;99.90;;;;;;5042320;28;20056;-45
2023/01/22 13:02:37;;;;;;;12.27;6.90;;;1.70;99.90;;;;;;5025101;28;20407;-43
2023/01/22 13:05:18;;;;;;;9.75;6.43;;;1.70;99.90;;;;;;5022934;28;20079;-41